This is the latest recevied weather packets stored in our database for station/object DG4MJS-10. If no packets are shown the sender has not sent any weather packets the latest 10 day(s).
| Time | Temp. | Humidity | Pressure | Rain* | Wind** | Luminosity | Snow |
|---|---|---|---|---|---|---|---|
| 1777926610 | 17.22° C | 55% | 1012 hPa | - | - | - | - |
| 1777925710 | 16.67° C | 57% | 1011.9 hPa | - | - | - | - |
| 1777924810 | 17.22° C | 58% | 1011.7 hPa | - | - | - | - |
| 1777923910 | 17.22° C | 57% | 1011.7 hPa | - | - | - | - |
| 1777923010 | 17.22° C | 58% | 1011.7 hPa | - | - | - | - |
| 1777922110 | 17.78° C | 52% | 1011.6 hPa | - | - | - | - |
| 1777921210 | 16.67° C | 56% | 1011.2 hPa | - | - | - | - |
| 1777920310 | 17.22° C | 55% | 1010.9 hPa | - | - | - | - |
| 1777919410 | 17.22° C | 55% | 1010.9 hPa | - | - | - | - |
| 1777918510 | 17.22° C | 55% | 1010.8 hPa | - | - | - | - |
| 1777917610 | 17.22° C | 55% | 1010.9 hPa | - | - | - | - |
| 1777916709 | 17.22° C | 52% | 1010.8 hPa | - | - | - | - |
| 1777915809 | 17.78° C | 53% | 1010.9 hPa | - | - | - | - |
| 1777914909 | 17.78° C | 50% | 1010.9 hPa | - | - | - | - |
| 1777914009 | 17.78° C | 52% | 1010.9 hPa | - | - | - | - |
| 1777913109 | 18.33° C | 50% | 1010.8 hPa | - | - | - | - |
| 1777912208 | 18.33° C | 50% | 1010.8 hPa | - | - | - | - |
| 1777911309 | 18.33° C | 51% | 1011 hPa | - | - | - | - |
| 1777910409 | 18.89° C | 46% | 1010.9 hPa | - | - | - | - |
| 1777909509 | 18.89° C | 46% | 1010.9 hPa | - | - | - | - |
| 1777908609 | 17.78° C | 53% | 1011.1 hPa | - | - | - | - |
| 1777907709 | 18.33° C | 51% | 1011.3 hPa | - | - | - | - |
| 1777906809 | 18.89° C | 49% | 1011.1 hPa | - | - | - | - |
| 1777905909 | 18.33° C | 50% | 1011.2 hPa | - | - | - | - |
| 1777905009 | 18.89° C | 47% | 1011.1 hPa | - | - | - | - |
* Rain since midnight (hover to see other rain measurements)
** Current wind speed in m/s (hover to see current wind gust speed)